Time;durP1;ratioP1;P1;durP2;ratioP2;P2;SDS_P1;SDS_P2;PMS_P1;PMS_P2;Temp;Humidity;BMP_temperature;BMP_pressure;BME280_temperature;BME280_humidity;BME280_pressure;Samples;Min_cycle;Max_cycle;Signal;HPM_P1;HPM_P2
2022/02/02 00:21:46;;;;;;;13.18;4.50;;;;;;;4.28;89.28;98540.11;1626529;88;21051;-71
2022/02/02 00:24:29;;;;;;;14.68;5.22;;;;;;;4.31;89.25;98555.09;1615582;87;21021;-71
2022/02/02 00:26:47;;;;;;;21.80;4.87;;;;;;;4.34;89.21;98552.09;1614421;87;21117;-71
2022/02/02 00:29:18;;;;;;;13.55;4.00;;;;;;;4.37;89.19;98560.98;1613808;88;21045;-71
2022/02/02 00:31:47;;;;;;;18.65;4.58;;;;;;;4.39;89.14;98559.00;1624701;88;21209;-71
2022/02/02 00:34:13;;;;;;;96.37;35.28;;;;;;;4.41;89.08;98571.51;1614020;88;21002;-71
2022/02/02 00:36:45;;;;;;;30.80;7.10;;;;;;;4.41;89.02;98568.87;1633056;87;21060;-71
2022/02/02 00:39:05;;;;;;;20.00;5.22;;;;;;;4.41;88.96;98580.74;1631258;87;21518;-71
2022/02/02 00:41:39;;;;;;;14.20;3.12;;;;;;;4.41;88.92;98582.06;1632814;87;21078;-71
2022/02/02 00:44:05;;;;;;;17.05;4.33;;;;;;;4.39;88.87;98588.03;1632857;87;21063;-71
2022/02/02 00:46:33;;;;;;;18.25;4.75;;;;;;;4.41;88.83;98574.15;1614707;87;21026;-71
2022/02/02 00:49:05;;;;;;;21.23;5.58;;;;;;;4.41;88.76;98587.34;1632872;87;21014;-71
2022/02/02 00:51:46;;;;;;;22.48;4.37;;;;;;;4.43;88.73;98591.94;1632760;87;21090;-71
2022/02/02 00:54:17;;;;;;;15.65;4.28;;;;;;;4.42;88.68;98591.63;1632747;87;21026;-71
2022/02/02 00:56:43;;;;;;;13.40;4.85;;;;;;;4.43;88.61;98595.89;1632835;86;21566;-71
2022/02/02 00:59:09;;;;;;;17.07;4.20;;;;;;;4.45;88.56;98587.81;1632869;87;20962;-71
2022/02/02 01:01:35;;;;;;;15.50;5.50;;;;;;;4.44;88.52;98592.76;1652103;85;21007;-71
2022/02/02 01:04:01;;;;;;;19.92;4.33;;;;;;;4.44;88.47;98598.03;1667320;85;21053;-71
2022/02/02 01:06:30;;;;;;;18.40;3.45;;;;;;;4.43;88.42;98594.57;1647838;86;20912;-71
2022/02/02 01:09:45;;;;;;;14.28;3.65;;;;;;;4.40;88.37;98597.56;1653955;86;22042;-71
2022/02/02 01:29:49;;;;;;;15.40;3.20;;;;;;;4.33;88.02;98608.98;1660186;86;21081;-71
2022/02/02 01:32:15;;;;;;;16.70;3.37;;;;;;;4.33;87.99;98601.90;1661749;85;21539;-71
2022/02/02 01:34:41;;;;;;;19.50;5.15;;;;;;;4.36;87.93;98606.83;1663020;85;21880;-71
2022/02/02 01:37:07;;;;;;;15.60;6.15;;;;;;;4.34;87.89;98604.87;1659834;86;22151;-70
2022/02/02 01:39:34;;;;;;;15.23;4.80;;;;;;;4.34;87.84;98606.19;1660700;86;21046;-71
2022/02/02 01:42:02;;;;;;;15.98;3.40;;;;;;;4.34;87.80;98600.91;1663417;85;21120;-71
2022/02/02 01:44:37;;;;;;;11.85;2.62;;;;;;;4.36;87.74;98617.38;1659835;85;21078;-71
2022/02/02 01:46:56;;;;;;;12.40;2.98;;;;;;;4.38;87.67;98618.53;1660630;85;21937;-71
2022/02/02 01:52:20;;;;;;;13.48;3.12;;;;;;;4.40;87.53;98626.59;1659584;86;21053;-71
2022/02/02 01:54:36;;;;;;;8.95;2.15;;;;;;;4.43;87.47;98633.36;1659162;85;21052;-71
2022/02/02 01:57:01;;;;;;;14.50;2.87;;;;;;;4.41;87.39;98632.20;1646296;86;21568;-71
2022/02/02 01:59:39;;;;;;;65.52;23.73;;;;;;;4.42;87.31;98644.41;1625340;86;21164;-71
2022/02/02 02:02:03;;;;;;;30.72;7.62;;;;;;;4.40;87.24;98637.15;1659474;86;21494;-71
2022/02/02 02:04:29;;;;;;;21.90;6.03;;;;;;;4.37;87.18;98636.19;1660981;86;21521;-71
2022/02/02 02:06:55;;;;;;;37.42;8.65;;;;;;;4.36;87.14;98641.12;1660926;86;21063;-71
2022/02/02 02:09:25;;;;;;;17.45;4.12;;;;;;;4.30;87.08;98641.83;1664195;85;21055;-71
2022/02/02 02:12:02;;;;;;;15.15;5.22;;;;;;;4.26;87.05;98644.48;1659586;86;21197;-71
2022/02/02 02:14:42;;;;;;;22.48;6.42;;;;;;;4.23;87.02;98650.11;1665377;85;25838;-71
2022/02/02 02:17:03;;;;;;;21.80;6.33;;;;;;;4.20;87.02;98649.14;1642363;86;21069;-71
2022/02/02 02:19:30;;;;;;;15.63;4.25;;;;;;;4.18;86.99;98655.09;1653858;85;21035;-71
2022/02/02 02:21:56;;;;;;;16.27;3.00;;;;;;;4.18;86.98;98655.59;1652516;85;21090;-71
2022/02/02 02:24:22;;;;;;;12.25;2.60;;;;;;;4.18;86.96;98666.97;1648757;85;21201;-71
2022/02/02 02:26:48;;;;;;;15.15;3.30;;;;;;;4.20;86.92;98664.14;1666443;85;20970;-71
2022/02/02 02:29:34;;;;;;;19.15;4.78;;;;;;;4.18;86.89;98656.42;1655502;86;21554;-71
2022/02/02 02:34:31;;;;;;;17.65;4.50;;;;;;;4.18;86.86;98661.70;1646861;86;21027;-71
2022/02/02 04:07:48;;;;;;;12.93;4.33;;;;;;;3.77;85.63;98727.41;1659827;86;21066;-70
2022/02/02 04:10:11;;;;;;;28.40;7.05;;;;;;;3.73;85.66;98719.53;1658925;86;21357;-70
2022/02/02 04:12:54;;;;;;;15.78;4.97;;;;;;;3.69;85.69;98728.75;1659124;86;21028;-70
2022/02/02 04:37:21;;;;;;;21.93;6.00;;;;;;;3.62;85.79;98718.55;1663841;85;21014;-70
2022/02/02 04:56:04;;;;;;;21.00;5.97;;;;;;;3.52;86.51;98769.60;1650391;86;20914;-71
2022/02/02 04:58:46;;;;;;;19.48;4.28;;;;;;;3.50;86.56;98767.64;1650028;86;21069;-70
2022/02/02 05:04:25;;;;;;;18.67;4.03;;;;;;;3.46;86.64;98753.14;1650743;86;21084;-71
2022/02/02 05:06:38;;;;;;;15.93;3.62;;;;;;;3.49;86.67;98759.40;1648696;87;21133;-71
2022/02/02 05:13:00;;;;;;;21.27;5.40;;;;;;;3.54;86.75;98744.42;1650591;87;21111;-71
2022/02/02 05:51:47;;;;;;;9.28;3.02;;;;;;;2.00;86.84;98837.88;1650871;86;21019;-71
2022/02/02 05:53:41;;;;;;;16.10;3.77;;;;;;;2.16;86.87;98840.61;1649986;87;21537;-71
2022/02/02 05:56:07;;;;;;;20.15;3.85;;;;;;;2.31;86.90;98841.69;1648772;87;21462;-70
2022/02/02 05:58:37;;;;;;;19.05;5.83;;;;;;;2.43;86.91;98848.31;1635754;85;21099;-70
2022/02/02 06:01:02;;;;;;;27.42;5.60;;;;;;;2.55;86.94;98842.30;1649587;87;21033;-71
2022/02/02 06:03:42;;;;;;;23.92;5.72;;;;;;;2.66;86.98;98846.46;1656112;86;21003;-71
2022/02/02 06:06:10;;;;;;;21.95;4.22;;;;;;;2.76;87.03;98853.73;1657331;86;21047;-71
2022/02/02 06:08:36;;;;;;;21.12;4.40;;;;;;;2.92;87.08;98845.92;1650560;87;21839;-71
2022/02/02 06:11:05;;;;;;;23.20;5.28;;;;;;;3.03;87.11;98845.59;1650708;85;21116;-71
2022/02/02 06:13:41;;;;;;;20.48;5.58;;;;;;;3.09;87.15;98850.25;1650162;86;21524;-71
2022/02/02 06:16:05;;;;;;;17.70;5.15;;;;;;;3.14;87.19;98847.94;1650387;86;21060;-71
2022/02/02 06:18:31;;;;;;;21.80;4.50;;;;;;;3.20;87.24;98853.88;1651649;86;21549;-71
2022/02/02 06:20:58;;;;;;;23.07;5.10;;;;;;;3.29;87.26;98862.14;1661040;84;22034;-71
2022/02/02 06:23:31;;;;;;;38.83;11.35;;;;;;;3.31;87.29;98856.20;1655366;86;21013;-71
2022/02/02 06:25:59;;;;;;;23.10;6.80;;;;;;;3.35;87.30;98864.13;1661920;86;20995;-71
2022/02/02 06:28:25;;;;;;;20.55;6.72;;;;;;;3.38;87.33;98867.75;1668318;86;21019;-71
2022/02/02 06:31:03;;;;;;;17.07;5.72;;;;;;;3.38;87.34;98871.70;1650819;86;21066;-71
2022/02/02 06:33:35;;;;;;;14.58;3.67;;;;;;;3.38;87.34;98879.60;1668472;86;21152;-71
2022/02/02 06:36:03;;;;;;;14.07;5.05;;;;;;;3.41;87.36;98874.00;1668451;86;21047;-72
2022/02/02 06:38:30;;;;;;;19.57;4.05;;;;;;;3.44;87.37;98871.07;1659495;86;21081;-72
2022/02/02 06:40:58;;;;;;;19.92;4.05;;;;;;;3.46;87.35;98869.09;1645330;87;21068;-72
2022/02/02 06:43:25;;;;;;;17.10;3.95;;;;;;;3.49;87.34;98879.30;1645270;87;21567;-71
2022/02/02 06:45:51;;;;;;;12.33;2.95;;;;;;;3.50;87.32;98899.41;1655521;86;22137;-71
2022/02/02 06:48:18;;;;;;;12.80;2.52;;;;;;;3.49;87.30;98885.05;1655062;86;21006;-71
2022/02/02 06:50:53;;;;;;;13.85;3.15;;;;;;;3.51;87.30;98898.42;1655432;86;22309;-71
2022/02/02 06:53:36;;;;;;;10.90;3.12;;;;;;;3.53;87.29;98896.92;1643884;85;21041;-71
2022/02/02 06:56:50;;;;;;;18.65;3.85;;;;;;;3.56;87.28;98897.09;1663337;85;21813;-71
2022/02/02 07:01:30;;;;;;;17.35;4.47;;;;;;;3.56;87.27;98899.23;1584692;85;20992;-71
2022/02/02 07:04:02;;;;;;;18.70;5.25;;;;;;;3.58;87.25;98906.50;1674656;85;21500;-71
2022/02/02 07:06:42;;;;;;;13.65;3.15;;;;;;;3.59;87.24;98913.92;1674333;85;21024;-71
2022/02/02 07:09:22;;;;;;;10.72;3.22;;;;;;;3.61;87.22;98925.94;1674114;85;21023;-71
2022/02/02 07:12:00;;;;;;;17.25;4.47;;;;;;;3.66;87.20;98917.04;1662166;85;21460;-71
2022/02/02 07:14:24;;;;;;;16.95;5.35;;;;;;;3.70;87.17;98922.81;1637999;87;21111;-71
2022/02/02 07:16:53;;;;;;;27.37;7.65;;;;;;;3.71;87.18;98909.97;1624096;87;21528;-71
2022/02/02 07:25:16;;;;;;;14.05;2.60;;;;;;;3.77;87.06;98938.31;1645194;87;21173;-71
2022/02/02 07:35:06;;;;;;;15.60;3.70;;;;;;;3.69;86.96;98962.05;1609937;89;21071;-71
2022/02/02 07:37:33;;;;;;;19.50;4.42;;;;;;;3.69;86.94;98961.55;1608247;89;21804;-71
2022/02/02 07:40:03;;;;;;;18.90;4.12;;;;;;;3.67;86.92;98963.51;1591637;88;21038;-71
2022/02/02 07:42:30;;;;;;;19.10;4.05;;;;;;;3.65;86.91;98972.57;1624567;88;21547;-71
2022/02/02 07:45:05;;;;;;;14.47;3.52;;;;;;;3.62;86.98;98971.58;1639191;87;21022;-71
2022/02/02 07:47:33;;;;;;;16.82;4.80;;;;;;;3.62;86.90;98966.31;1648829;86;21039;-71
2022/02/02 07:49:59;;;;;;;25.80;10.18;;;;;;;3.61;86.93;98965.97;1645370;85;21083;-71
2022/02/02 07:52:28;;;;;;;21.40;6.55;;;;;;;3.61;86.92;98977.34;1648812;87;21488;-71
2022/02/02 07:54:54;;;;;;;34.23;11.00;;;;;;;3.63;86.95;98967.45;1650537;87;21034;-71
2022/02/02 07:57:26;;;;;;;21.60;5.35;;;;;;;3.65;86.95;98972.57;1650768;86;21007;-71
2022/02/02 07:59:59;;;;;;;18.02;5.78;;;;;;;3.67;86.98;98979.33;1649774;86;21080;-71
2022/02/02 08:02:43;;;;;;;20.25;4.65;;;;;;;3.67;86.99;98977.17;1649625;86;21167;-71
2022/02/02 08:04:57;;;;;;;24.57;5.15;;;;;;;3.68;86.99;98988.89;1648627;86;21051;-71
2022/02/02 08:07:28;;;;;;;29.57;6.17;;;;;;;3.69;87.01;98994.50;1650610;86;21152;-71
2022/02/02 08:10:05;;;;;;;21.77;5.85;;;;;;;3.70;87.01;98988.71;1650307;86;21006;-71
2022/02/02 08:12:20;;;;;;;23.35;4.60;;;;;;;3.71;87.04;99000.91;1638850;87;21042;-71
2022/02/02 08:14:54;;;;;;;27.35;5.00;;;;;;;3.72;87.02;99010.48;1610453;89;21783;-71
2022/02/02 08:17:14;;;;;;;23.83;5.33;;;;;;;3.74;87.01;99025.15;1609386;88;21034;-71
2022/02/02 08:19:41;;;;;;;21.45;4.22;;;;;;;3.75;86.99;99026.81;1610399;88;21514;-71
2022/02/02 08:22:07;;;;;;;18.42;4.72;;;;;;;3.80;87.00;99038.20;1595515;90;21026;-71
2022/02/02 08:24:33;;;;;;;17.95;4.03;;;;;;;3.83;86.99;99032.11;1596063;90;20899;-71
2022/02/02 08:27:00;;;;;;;19.07;5.72;;;;;;;3.87;86.97;99032.62;1596958;89;21092;-71
2022/02/02 08:29:26;;;;;;;17.55;4.70;;;;;;;3.88;86.95;99042.16;1595865;90;21042;-71
2022/02/02 08:31:52;;;;;;;17.50;5.10;;;;;;;3.90;86.93;99042.84;1595839;90;21042;-71
2022/02/02 08:34:19;;;;;;;20.52;5.30;;;;;;;3.91;86.91;99045.30;1597433;89;21672;-71
2022/02/02 08:36:50;;;;;;;26.77;5.72;;;;;;;3.93;86.89;99042.03;1579392;89;21054;-70
2022/02/02 08:39:22;;;;;;;22.40;5.05;;;;;;;3.98;86.88;99041.52;1629554;87;21561;-71
2022/02/02 08:41:47;;;;;;;15.72;4.10;;;;;;;4.03;86.82;99062.97;1630121;87;21097;-71
2022/02/02 08:44:13;;;;;;;25.85;8.08;;;;;;;4.09;86.81;99075.52;1623809;88;21539;-71
2022/02/02 08:46:40;;;;;;;17.98;4.65;;;;;;;4.16;86.76;99076.52;1625044;88;21020;-70
2022/02/02 08:49:08;;;;;;;19.27;3.83;;;;;;;4.22;86.73;99077.18;1641363;87;21056;-70
2022/02/02 08:51:38;;;;;;;16.20;4.20;;;;;;;4.21;86.68;99079.52;1631674;87;21807;-71
2022/02/02 08:54:10;;;;;;;30.92;9.20;;;;;;;4.18;86.65;99086.44;1635889;87;21422;-71
2022/02/02 08:56:51;;;;;;;27.15;6.42;;;;;;;4.16;86.62;99092.34;1629311;88;21018;-70
2022/02/02 08:59:08;;;;;;;28.42;10.60;;;;;;;4.15;86.58;99089.37;1642625;86;21036;-70
2022/02/02 09:01:33;;;;;;;22.42;5.72;;;;;;;4.15;86.54;99097.80;1641501;87;21051;-71
2022/02/02 09:06:42;;;;;;;34.15;11.38;;;;;;;4.11;86.46;99112.30;1636555;85;21039;-70
2022/02/02 09:09:12;;;;;;;31.37;11.88;;;;;;;4.12;86.42;99109.48;1632804;87;21015;-70
2022/02/02 09:25:21;;;;;;;35.98;9.63;;;;;;;4.30;86.29;99112.00;1603702;89;21065;-70
2022/02/02 09:35:40;;;;;;;27.40;10.55;;;;;;;4.58;86.15;99133.17;1643203;87;21055;-72
2022/02/02 09:38:06;;;;;;;26.95;8.38;;;;;;;4.57;86.13;99140.78;1631100;88;21053;-71
2022/02/02 09:43:19;;;;;;;33.88;10.80;;;;;;;4.59;86.06;99132.68;1630265;88;21079;-72
2022/02/02 09:45:54;;;;;;;23.35;6.25;;;;;;;4.58;85.99;99132.34;1642849;85;21069;-71
2022/02/02 09:48:45;;;;;;;42.15;14.78;;;;;;;4.50;85.94;99148.49;1585296;88;21114;-71
2022/02/02 09:50:53;;;;;;;33.67;12.55;;;;;;;4.33;85.80;99174.52;1616172;85;21071;-71
2022/02/02 09:53:30;;;;;;;30.37;11.33;;;;;;;4.21;85.77;99170.53;1622396;88;21524;-71
2022/02/02 10:06:58;;;;;;;10.45;4.83;;;;;;;4.06;85.46;99204.26;1629238;88;21034;-71
2022/02/02 10:09:46;;;;;;;4.83;2.30;;;;;;;3.85;85.38;99190.98;1622747;88;21128;-71
2022/02/02 10:14:36;;;;;;;41.10;19.57;;;;;;;3.55;85.29;99209.09;1646372;87;21061;-72
2022/02/02 10:17:09;;;;;;;32.80;14.28;;;;;;;3.50;85.25;99211.69;1632276;88;21536;-72
2022/02/02 10:19:36;;;;;;;36.03;14.63;;;;;;;3.52;85.25;99208.40;1629978;87;21479;-72
2022/02/02 10:22:21;;;;;;;21.35;9.28;;;;;;;3.60;85.26;99211.58;1623612;87;21078;-72
2022/02/02 10:24:51;;;;;;;20.40;7.15;;;;;;;3.69;85.24;99208.03;1646630;87;21045;-72
2022/02/02 10:27:35;;;;;;;9.80;2.42;;;;;;;3.84;85.26;99209.58;1631872;86;21036;-72
2022/02/02 10:30:09;;;;;;;18.37;5.95;;;;;;;3.96;85.24;99217.58;1646742;87;21061;-72
2022/02/02 10:32:42;;;;;;;27.62;9.38;;;;;;;4.05;85.21;99219.77;1632051;88;21028;-71
2022/02/02 10:35:10;;;;;;;15.60;6.53;;;;;;;4.10;85.21;99219.62;1646681;87;21299;-72
2022/02/02 10:37:38;;;;;;;28.25;10.80;;;;;;;4.16;85.21;99224.26;1646505;87;21031;-71
2022/02/02 10:40:06;;;;;;;24.40;7.97;;;;;;;4.23;85.20;99231.87;1632099;87;21029;-72
2022/02/02 10:42:40;;;;;;;15.10;4.50;;;;;;;4.32;85.23;99232.75;1630015;87;21047;-71
2022/02/02 10:45:19;;;;;;;16.42;5.95;;;;;;;4.38;85.20;99215.78;1646243;86;21087;-71
2022/02/02 10:47:48;;;;;;;8.60;3.87;;;;;;;4.47;85.21;99225.38;1644594;87;21219;-72
2022/02/02 10:50:25;;;;;;;8.73;3.95;;;;;;;4.57;85.20;99225.27;1640622;87;21026;-71
2022/02/02 10:54:00;;;;;;;40.95;17.60;;;;;;;4.61;85.15;99224.45;1645748;86;21129;-72
2022/02/02 10:58:25;;;;;;;17.32;5.80;;;;;;;4.63;85.13;99243.58;1646364;87;21058;-72
2022/02/02 11:08:52;;;;;;;13.45;3.80;;;;;;;4.48;85.05;99260.03;1612631;88;21041;-72
2022/02/02 11:11:18;;;;;;;12.47;3.90;;;;;;;4.43;85.03;99271.55;1642638;87;20924;-72
2022/02/02 11:13:46;;;;;;;19.80;6.55;;;;;;;4.38;85.00;99272.53;1641973;87;21487;-72
2022/02/02 11:16:16;;;;;;;20.50;8.18;;;;;;;4.36;84.99;99269.20;1641891;87;21000;-72
2022/02/02 11:18:42;;;;;;;;;;;;;;;4.36;84.96;99282.40;1631265;88;21100;-72
2022/02/02 11:21:09;;;;;;;22.67;8.98;;;;;;;4.35;84.95;99284.72;1641150;86;20720;-72
2022/02/02 11:23:48;;;;;;;46.15;18.48;;;;;;;4.34;84.92;99287.51;1647401;86;21001;-72
2022/02/02 11:26:34;;;;;;;21.35;9.10;;;;;;;4.33;84.88;99303.83;1650736;85;21074;-72
2022/02/02 11:29:00;;;;;;;52.03;19.20;;;;;;;4.29;84.84;99306.44;1638224;86;21551;-71
2022/02/02 11:31:28;;;;;;;14.53;5.83;;;;;;;4.30;84.81;99312.06;1639448;87;21033;-72
2022/02/02 11:33:57;;;;;;;13.80;5.05;;;;;;;4.29;84.80;99306.44;1644149;87;21085;-71
2022/02/02 11:36:41;;;;;;;37.77;16.40;;;;;;;4.30;84.77;99306.79;1640948;87;21065;-72
2022/02/02 11:39:09;;;;;;;14.20;4.97;;;;;;;4.30;84.73;99306.79;1633169;87;21131;-71
2022/02/02 11:41:49;;;;;;;13.10;3.90;;;;;;;4.31;84.71;99313.73;1632123;87;21080;-71
2022/02/02 11:44:20;;;;;;;8.03;4.60;;;;;;;4.30;84.80;99314.70;1630856;87;22146;-71
2022/02/02 11:49:47;;;;;;;15.58;5.33;;;;;;;4.34;84.55;99323.97;1632463;87;21032;-72
2022/02/02 11:52:39;;;;;;;13.28;4.87;;;;;;;4.37;84.54;99328.09;1632521;87;21571;-72
2022/02/02 11:55:12;;;;;;;9.30;3.20;;;;;;;4.35;84.45;99330.91;1632380;86;21343;-72
2022/02/02 11:58:12;;;;;;;9.35;3.62;;;;;;;4.33;84.39;99333.34;1632350;87;21083;-71
2022/02/02 12:00:43;;;;;;;51.25;22.80;;;;;;;4.32;84.33;99348.38;1632130;87;21138;-71
2022/02/02 12:08:46;;;;;;;27.58;10.08;;;;;;;4.40;84.20;99349.72;1632375;88;21084;-71
2022/02/02 12:47:09;;;;;;;23.35;7.50;;;;;;;4.65;83.38;99418.50;1639340;87;21133;-71
2022/02/02 12:58:03;;;;;;;15.45;5.00;;;;;;;4.54;83.15;99443.34;1651333;86;21089;-71
2022/02/02 13:01:07;;;;;;;22.85;7.45;;;;;;;4.49;83.07;99457.03;1638689;87;21216;-71
2022/02/02 13:03:08;;;;;;;14.85;4.22;;;;;;;4.46;83.03;99457.35;1635023;87;21067;-70
2022/02/02 13:05:38;;;;;;;24.07;7.90;;;;;;;4.40;82.98;99467.18;1639603;87;21123;-70
2022/02/02 13:08:04;;;;;;;26.15;7.67;;;;;;;4.33;82.95;99470.09;1638781;87;21529;-71
2022/02/02 13:10:33;;;;;;;21.25;6.78;;;;;;;4.28;82.94;99472.38;1632733;87;21108;-70
2022/02/02 13:13:22;;;;;;;17.67;6.42;;;;;;;4.26;82.93;99482.73;1632615;87;21351;-71
2022/02/02 13:15:57;;;;;;;25.88;11.25;;;;;;;4.23;82.94;99485.19;1631270;87;21108;-70
2022/02/02 13:23:52;;;;;;;39.98;16.05;;;;;;;4.25;83.01;99499.08;1590007;88;21069;-71
2022/02/02 13:26:17;;;;;;;38.50;14.93;;;;;;;4.26;83.06;99500.72;1623210;87;21101;-70
2022/02/02 13:28:53;;;;;;;15.32;4.47;;;;;;;4.24;83.07;99506.64;1622416;87;21063;-70
2022/02/02 13:31:44;;;;;;;18.55;4.87;;;;;;;4.25;83.10;99514.91;1622881;88;21049;-71
2022/02/02 13:34:11;;;;;;;10.53;2.52;;;;;;;4.27;83.12;99516.89;1622061;88;21041;-71
2022/02/02 13:45:40;;;;;;;16.82;5.37;;;;;;;4.21;83.20;99550.49;1622973;88;21115;-71
2022/02/02 13:48:40;;;;;;;16.00;4.40;;;;;;;4.19;83.23;99552.43;1618949;88;21060;-71
2022/02/02 14:07:11;;;;;;;18.60;7.03;;;;;;;4.02;83.30;99613.92;1623168;88;21336;-71
2022/02/02 14:09:39;;;;;;;12.05;5.22;;;;;;;4.00;83.34;99608.81;1620813;88;21073;-71
2022/02/02 14:31:14;;;;;;;66.25;26.23;;;;;;;3.90;83.61;99682.38;1633210;87;21104;-71
2022/02/02 14:33:47;;;;;;;43.23;17.05;;;;;;;3.88;83.64;99705.41;1650548;86;21060;-71
2022/02/02 14:36:17;;;;;;;51.92;21.45;;;;;;;3.85;83.66;99713.61;1651014;86;21644;-71
2022/02/02 14:41:39;;;;;;;17.57;7.90;;;;;;;3.81;83.75;99734.64;1651065;87;21541;-71
2022/02/02 14:46:40;;;;;;;8.73;3.42;;;;;;;3.71;83.83;99754.94;1631207;88;21125;-72
2022/02/02 14:49:11;;;;;;;9.73;3.35;;;;;;;3.62;83.87;99768.50;1636469;87;20966;-72
2022/02/02 15:29:27;;;;;;;12.90;4.97;;;;;;;2.72;84.55;99892.11;1656362;85;21004;-71
2022/02/02 15:31:47;;;;;;;10.20;4.55;;;;;;;2.76;84.61;99898.78;1654659;86;21020;-71
2022/02/02 15:34:20;;;;;;;15.20;7.05;;;;;;;2.78;84.67;99913.47;1677802;85;21090;-71
2022/02/02 15:37:18;;;;;;;16.57;7.12;;;;;;;2.79;84.74;99916.94;1677059;85;21054;-72
2022/02/02 15:39:23;;;;;;;;;;;;;;;2.79;84.75;99923.05;1676874;85;21163;-72
2022/02/02 15:55:21;;;;;;;13.68;6.22;;;;;;;2.75;84.97;99977.41;1697398;84;21054;-71
2022/02/02 16:03:03;;;;;;;38.55;15.18;;;;;;;2.81;85.05;100009.81;1706170;84;21551;-71
2022/02/02 16:05:30;;;;;;;37.23;13.10;;;;;;;2.80;85.06;100014.24;1677800;84;21294;-71
2022/02/02 16:07:56;;;;;;;29.20;11.22;;;;;;;2.79;85.07;100030.16;1660252;86;21095;-72
2022/02/02 16:10:36;;;;;;;21.25;8.90;;;;;;;2.78;85.08;100033.27;1649054;86;21023;-71
2022/02/02 16:12:49;;;;;;;24.30;8.60;;;;;;;2.76;85.11;100037.00;1677751;85;21003;-71
2022/02/02 16:15:21;;;;;;;15.60;6.75;;;;;;;2.74;85.08;100040.26;1672851;85;21066;-71
2022/02/02 16:36:49;;;;;;;25.35;8.33;;;;;;;2.71;85.14;100077.37;1667438;85;21694;-72
2022/02/02 16:38:57;;;;;;;17.60;7.08;;;;;;;2.70;85.11;100078.33;1653064;86;21036;-71
2022/02/02 16:43:07;;;;;;;11.70;5.00;;;;;;;2.71;85.13;100090.54;1651190;85;21105;-71
2022/02/02 16:43:41;;;;;;;15.65;6.15;;;;;;;2.69;85.10;100093.77;1646870;87;21040;-71
2022/02/02 16:46:07;;;;;;;10.85;5.87;;;;;;;2.70;85.12;100098.08;1675433;84;20934;-71
2022/02/02 16:48:33;;;;;;;17.92;7.92;;;;;;;2.71;85.14;100095.80;1673613;85;21018;-71
2022/02/02 16:51:04;;;;;;;41.42;17.35;;;;;;;2.71;85.15;100114.23;1654386;86;21076;-72
2022/02/02 16:53:38;;;;;;;21.07;9.80;;;;;;;2.72;85.14;100113.25;1647638;85;21024;-72
2022/02/02 16:56:10;;;;;;;37.20;20.37;;;;;;;2.70;85.17;100119.13;1681829;84;21151;-71
2022/02/02 17:31:31;;;;;;;27.87;10.38;;;;;;;2.29;85.14;100202.27;1595000;89;21092;-72
2022/02/02 17:33:59;;;;;;;42.93;14.43;;;;;;;2.28;85.13;100206.35;1594223;88;21593;-72
2022/02/02 17:36:33;;;;;;;49.60;19.67;;;;;;;2.26;85.10;100219.61;1619099;86;21500;-72
2022/02/02 17:39:04;;;;;;;66.80;28.83;;;;;;;2.24;85.08;100226.80;1660080;86;21069;-72
2022/02/02 17:42:35;;;;;;;94.55;30.77;;;;;;;2.25;85.07;100227.14;1659949;86;20966;-72
2022/02/02 17:44:13;;;;;;;133.45;46.80;;;;;;;2.25;85.05;100228.95;1638179;86;21066;-72
2022/02/02 18:03:28;;;;;;;48.92;15.03;;;;;;;2.07;84.84;100270.70;1660783;86;21138;-72
2022/02/02 18:21:20;;;;;;;21.77;8.83;;;;;;;1.60;84.74;100321.63;1662926;85;21026;-71
2022/02/02 18:23:59;;;;;;;22.30;9.08;;;;;;;1.57;84.71;100322.33;1665269;83;21490;-72
2022/02/02 18:26:32;;;;;;;28.32;11.45;;;;;;;1.57;84.71;100306.56;1667247;84;21082;-71
2022/02/02 18:29:00;;;;;;;39.90;14.87;;;;;;;1.60;84.67;100313.74;1662369;84;21147;-72
2022/02/02 18:36:55;;;;;;;17.50;7.95;;;;;;;1.59;84.54;100340.12;1650341;84;21056;-78
2022/02/02 18:44:54;;;;;;;18.57;7.37;;;;;;;1.57;84.40;100372.27;1647647;85;21116;-71
2022/02/02 18:47:26;;;;;;;128.27;41.53;;;;;;;1.56;84.38;100374.05;1667120;84;21135;-71
2022/02/02 18:54:52;;;;;;;46.18;19.25;;;;;;;1.55;84.27;100389.95;1664114;84;21422;-71
2022/02/02 18:57:23;;;;;;;51.35;19.32;;;;;;;1.54;84.21;100388.27;1663830;84;21663;-72
2022/02/02 19:05:18;;;;;;;29.65;11.12;;;;;;;1.48;84.05;100403.51;1668216;84;21602;-72
2022/02/02 19:37:21;;;;;;;48.83;18.17;;;;;;;0.86;83.38;100480.69;1653164;85;21031;-71
2022/02/02 19:55:59;;;;;;;17.35;7.35;;;;;;;0.44;83.07;100503.67;1654102;85;21061;-70
2022/02/02 20:06:39;;;;;;;66.42;25.52;;;;;;;0.40;82.90;100520.55;1627780;88;21073;-70
2022/02/02 20:11:37;;;;;;;60.48;20.15;;;;;;;0.34;82.80;100511.80;1645796;87;21071;-70
2022/02/02 20:14:04;;;;;;;96.95;36.42;;;;;;;0.32;82.75;100522.84;1645354;87;21219;-70
2022/02/02 20:16:30;;;;;;;33.08;13.62;;;;;;;0.29;82.71;100519.11;1645069;85;21516;-70
2022/02/02 20:18:58;;;;;;;30.92;12.18;;;;;;;0.28;82.69;100533.66;1645250;85;21531;-70
2022/02/02 20:21:29;;;;;;;33.18;13.50;;;;;;;0.25;82.66;100539.92;1633448;87;21055;-70
2022/02/02 20:23:52;;;;;;;21.97;8.90;;;;;;;0.24;82.63;100535.64;1645310;85;21035;-71
2022/02/02 20:26:22;;;;;;;17.02;7.97;;;;;;;0.26;82.60;100541.61;1646013;85;21190;-71
2022/02/02 20:28:46;;;;;;;9.08;4.80;;;;;;;0.27;82.59;100540.68;1645333;87;21022;-71
2022/02/02 20:31:13;;;;;;;46.98;17.70;;;;;;;0.27;82.56;100540.68;1645802;87;21664;-70
2022/02/02 20:33:39;;;;;;;16.75;7.83;;;;;;;0.27;82.50;100543.30;1637610;87;21397;-71
2022/02/02 20:36:06;;;;;;;27.98;13.88;;;;;;;0.26;82.48;100545.55;1649138;86;21091;-71
2022/02/02 20:38:32;;;;;;;54.23;27.75;;;;;;;0.26;82.45;100553.88;1673269;85;21153;-71
2022/02/02 20:40:58;;;;;;;31.27;14.75;;;;;;;0.28;82.41;100557.27;1681194;85;21593;-70
2022/02/02 21:08:19;;;;;;;14.85;6.90;;;;;;;0.13;82.13;100596.27;1655540;85;21044;-70
2022/02/02 21:10:26;;;;;;;16.57;6.85;;;;;;;0.09;82.13;100602.19;1682863;84;21090;-70
2022/02/02 21:15:37;;;;;;;55.73;22.95;;;;;;;0.08;82.12;100617.53;1682644;85;21078;-70
2022/02/02 21:18:14;;;;;;;51.63;20.02;;;;;;;0.08;82.11;100620.62;1676464;84;21712;-70
2022/02/02 21:20:42;;;;;;;43.10;15.85;;;;;;;0.09;82.09;100618.38;1647745;84;21075;-70
2022/02/02 21:23:05;;;;;;;34.63;13.28;;;;;;;0.08;82.11;100626.70;1637581;87;21007;-70
2022/02/02 21:28:04;;;;;;;43.13;13.60;;;;;;;0.08;82.12;100618.84;1653718;85;21024;-70
2022/02/02 21:30:31;;;;;;;48.60;19.40;;;;;;;0.06;82.12;100629.91;1654148;86;21159;-70
2022/02/02 21:32:58;;;;;;;57.58;19.10;;;;;;;0.05;82.13;100629.53;1654578;86;21540;-70
2022/02/02 21:35:24;;;;;;;88.75;26.00;;;;;;;0.05;82.12;100641.79;1625765;88;21311;-70
2022/02/02 21:37:59;;;;;;;64.12;22.07;;;;;;;0.02;82.15;100641.52;1653660;86;21060;-70
2022/02/02 21:40:23;;;;;;;132.03;34.13;;;;;;;0.02;82.16;100637.59;1626293;87;21013;-70
2022/02/02 21:42:47;;;;;;;163.03;41.63;;;;;;;0.02;82.17;100642.84;1634417;86;21089;-70
2022/02/02 21:45:14;;;;;;;225.30;50.65;;;;;;;0.02;82.16;100640.68;1671678;85;21083;-70
2022/02/02 21:47:40;;;;;;;240.37;52.98;;;;;;;0.00;82.15;100636.36;1657085;86;21031;-70
2022/02/02 21:50:11;;;;;;;120.50;28.70;;;;;;;0.01;82.17;100638.52;1657172;86;21034;-70
2022/02/02 21:52:35;;;;;;;172.65;42.10;;;;;;;0.00;82.17;100636.86;1657072;86;21109;-70
2022/02/02 21:55:02;;;;;;;152.25;40.00;;;;;;;-0.01;82.17;100639.09;1657209;86;21611;-70
2022/02/02 21:57:28;;;;;;;130.30;32.33;;;;;;;-0.03;82.19;100645.73;1654307;86;21597;-69
2022/02/02 21:59:54;;;;;;;89.70;29.40;;;;;;;-0.04;82.18;100647.16;1640264;86;21544;-70
2022/02/02 22:02:20;;;;;;;78.85;24.52;;;;;;;-0.06;82.18;100656.88;1614592;88;20984;-70
2022/02/02 22:04:46;;;;;;;61.10;18.77;;;;;;;-0.08;82.20;100654.84;1614441;88;21122;-70
2022/02/02 22:07:12;;;;;;;41.92;13.70;;;;;;;-0.08;82.20;100665.33;1614731;88;21265;-70
2022/02/02 22:09:39;;;;;;;50.03;20.75;;;;;;;-0.09;82.22;100664.94;1614979;87;21071;-69
2022/02/02 22:12:06;;;;;;;45.67;17.05;;;;;;;-0.09;82.26;100668.88;1614934;88;21076;-70
2022/02/02 22:14:33;;;;;;;63.63;22.67;;;;;;;-0.10;82.27;100669.80;1635321;86;21604;-70
2022/02/02 22:17:02;;;;;;;53.00;17.55;;;;;;;-0.14;82.28;100677.52;1682060;85;21046;-70
2022/02/02 22:19:27;;;;;;;66.67;22.22;;;;;;;-0.20;82.28;100676.55;1682974;85;21551;-70